sensor_id;sensor_type;location;lat;lon;timestamp;P1;durP1;ratioP1;P2;durP2;ratioP2
8978;SDS011;4524;51.364;5.448;2023-04-24T19:30:16;11.57;;;3.90;;
8978;SDS011;4524;51.364;5.448;2023-04-24T19:32:44;10.97;;;4.07;;
8978;SDS011;4524;51.364;5.448;2023-04-24T19:35:12;7.83;;;3.53;;
8978;SDS011;4524;51.364;5.448;2023-04-24T19:37:41;10.27;;;4.40;;
8978;SDS011;4524;51.364;5.448;2023-04-24T19:40:09;10.53;;;3.90;;
8978;SDS011;4524;51.364;5.448;2023-04-24T19:42:38;11.77;;;4.00;;
8978;SDS011;4524;51.364;5.448;2023-04-24T19:45:10;9.60;;;4.23;;
8978;SDS011;4524;51.364;5.448;2023-04-24T19:47:38;10.90;;;4.00;;
8978;SDS011;4524;51.364;5.448;2023-04-24T19:50:06;11.33;;;4.00;;
8978;SDS011;4524;51.364;5.448;2023-04-24T19:52:35;14.50;;;4.60;;
8978;SDS011;4524;51.364;5.448;2023-04-24T19:55:04;11.90;;;4.67;;
8978;SDS011;4524;51.364;5.448;2023-04-24T19:57:33;8.23;;;4.83;;
8978;SDS011;4524;51.364;5.448;2023-04-24T20:00:01;11.17;;;4.20;;
8978;SDS011;4524;51.364;5.448;2023-04-24T20:02:30;9.93;;;4.37;;
8978;SDS011;4524;51.364;5.448;2023-04-24T20:04:58;12.20;;;4.17;;
8978;SDS011;4524;51.364;5.448;2023-04-24T20:07:26;9.93;;;4.17;;
8978;SDS011;4524;51.364;5.448;2023-04-24T20:09:54;9.97;;;4.47;;
8978;SDS011;4524;51.364;5.448;2023-04-24T20:12:23;9.67;;;4.87;;
8978;SDS011;4524;51.364;5.448;2023-04-24T20:14:51;10.50;;;4.23;;
8978;SDS011;4524;51.364;5.448;2023-04-24T20:17:19;10.70;;;4.37;;
8978;SDS011;4524;51.364;5.448;2023-04-24T20:19:47;9.70;;;4.57;;
8978;SDS011;4524;51.364;5.448;2023-04-24T20:22:15;8.13;;;4.43;;
8978;SDS011;4524;51.364;5.448;2023-04-24T20:24:44;9.67;;;4.80;;
8978;SDS011;4524;51.364;5.448;2023-04-24T20:27:12;13.00;;;5.30;;
8978;SDS011;4524;51.364;5.448;2023-04-24T20:29:41;10.37;;;4.70;;
8978;SDS011;4524;51.364;5.448;2023-04-24T20:32:09;12.47;;;5.10;;
8978;SDS011;4524;51.364;5.448;2023-04-24T20:34:37;10.20;;;5.30;;
8978;SDS011;4524;51.364;5.448;2023-04-24T20:37:05;8.03;;;5.10;;
8978;SDS011;4524;51.364;5.448;2023-04-24T20:39:32;10.83;;;4.90;;
8978;SDS011;4524;51.364;5.448;2023-04-24T20:42:00;12.83;;;4.97;;
8978;SDS011;4524;51.364;5.448;2023-04-24T20:44:29;11.23;;;5.23;;
8978;SDS011;4524;51.364;5.448;2023-04-24T20:46:58;13.77;;;5.30;;
8978;SDS011;4524;51.364;5.448;2023-04-24T20:49:26;12.70;;;5.17;;
8978;SDS011;4524;51.364;5.448;2023-04-24T20:51:54;11.30;;;5.10;;
8978;SDS011;4524;51.364;5.448;2023-04-24T20:54:24;12.40;;;5.17;;
8978;SDS011;4524;51.364;5.448;2023-04-24T20:56:52;12.23;;;5.30;;
8978;SDS011;4524;51.364;5.448;2023-04-24T20:59:20;9.93;;;5.43;;
8978;SDS011;4524;51.364;5.448;2023-04-24T21:01:48;13.47;;;5.27;;
8978;SDS011;4524;51.364;5.448;2023-04-24T21:04:17;15.03;;;5.43;;
8978;SDS011;4524;51.364;5.448;2023-04-24T21:06:45;12.63;;;5.40;;
8978;SDS011;4524;51.364;5.448;2023-04-24T21:09:13;11.20;;;4.80;;
8978;SDS011;4524;51.364;5.448;2023-04-24T21:11:41;13.60;;;5.13;;
8978;SDS011;4524;51.364;5.448;2023-04-24T21:14:09;10.80;;;5.03;;
8978;SDS011;4524;51.364;5.448;2023-04-24T21:16:37;10.13;;;5.10;;
8978;SDS011;4524;51.364;5.448;2023-04-24T21:19:06;11.20;;;4.90;;
8978;SDS011;4524;51.364;5.448;2023-04-24T21:21:35;11.53;;;5.30;;
8978;SDS011;4524;51.364;5.448;2023-04-24T21:24:03;12.90;;;4.70;;
8978;SDS011;4524;51.364;5.448;2023-04-24T21:26:31;8.53;;;5.07;;
8978;SDS011;4524;51.364;5.448;2023-04-24T21:28:59;11.63;;;5.37;;
8978;SDS011;4524;51.364;5.448;2023-04-24T21:31:27;11.23;;;5.23;;
8978;SDS011;4524;51.364;5.448;2023-04-24T21:33:55;15.60;;;6.40;;
8978;SDS011;4524;51.364;5.448;2023-04-24T21:36:23;15.03;;;5.43;;
8978;SDS011;4524;51.364;5.448;2023-04-24T21:38:53;12.83;;;5.70;;
8978;SDS011;4524;51.364;5.448;2023-04-24T21:41:21;11.53;;;5.40;;
8978;SDS011;4524;51.364;5.448;2023-04-24T21:43:49;12.73;;;5.47;;
8978;SDS011;4524;51.364;5.448;2023-04-24T21:46:18;13.17;;;5.63;;
8978;SDS011;4524;51.364;5.448;2023-04-24T21:48:46;11.57;;;5.60;;
8978;SDS011;4524;51.364;5.448;2023-04-24T21:51:14;14.23;;;5.60;;
8978;SDS011;4524;51.364;5.448;2023-04-24T21:53:43;11.30;;;5.20;;
8978;SDS011;4524;51.364;5.448;2023-04-24T21:56:12;11.97;;;5.50;;
8978;SDS011;4524;51.364;5.448;2023-04-24T21:58:40;14.50;;;5.50;;
8978;SDS011;4524;51.364;5.448;2023-04-24T22:01:08;10.60;;;5.50;;
8978;SDS011;4524;51.364;5.448;2023-04-24T22:03:37;14.53;;;5.10;;
8978;SDS011;4524;51.364;5.448;2023-04-24T22:06:05;16.40;;;5.83;;
8978;SDS011;4524;51.364;5.448;2023-04-24T22:08:33;17.50;;;5.60;;
8978;SDS011;4524;51.364;5.448;2023-04-24T22:11:01;11.77;;;5.13;;
8978;SDS011;4524;51.364;5.448;2023-04-24T22:13:37;15.13;;;6.40;;
8978;SDS011;4524;51.364;5.448;2023-04-24T22:16:07;16.73;;;5.70;;
8978;SDS011;4524;51.364;5.448;2023-04-24T22:18:35;13.53;;;5.80;;
8978;SDS011;4524;51.364;5.448;2023-04-24T22:21:12;12.40;;;5.00;;
8978;SDS011;4524;51.364;5.448;2023-04-24T22:23:40;13.87;;;5.90;;
8978;SDS011;4524;51.364;5.448;2023-04-24T22:26:08;15.53;;;6.00;;
8978;SDS011;4524;51.364;5.448;2023-04-24T22:28:38;15.07;;;5.70;;
8978;SDS011;4524;51.364;5.448;2023-04-24T22:31:05;13.13;;;6.00;;
8978;SDS011;4524;51.364;5.448;2023-04-24T22:33:34;17.57;;;6.17;;
8978;SDS011;4524;51.364;5.448;2023-04-24T22:36:02;15.20;;;6.03;;
8978;SDS011;4524;51.364;5.448;2023-04-24T22:38:30;16.77;;;5.70;;
8978;SDS011;4524;51.364;5.448;2023-04-24T22:40:58;14.67;;;5.77;;
8978;SDS011;4524;51.364;5.448;2023-04-24T22:43:26;15.13;;;6.13;;
8978;SDS011;4524;51.364;5.448;2023-04-24T22:45:56;13.60;;;6.20;;
8978;SDS011;4524;51.364;5.448;2023-04-24T22:48:23;12.90;;;5.63;;
8978;SDS011;4524;51.364;5.448;2023-04-24T22:50:52;14.27;;;5.70;;
8978;SDS011;4524;51.364;5.448;2023-04-24T22:53:21;11.90;;;5.00;;
8978;SDS011;4524;51.364;5.448;2023-04-24T22:55:49;13.57;;;6.00;;
8978;SDS011;4524;51.364;5.448;2023-04-24T22:58:17;15.37;;;5.47;;
8978;SDS011;4524;51.364;5.448;2023-04-24T23:00:44;16.50;;;6.10;;
8978;SDS011;4524;51.364;5.448;2023-04-24T23:03:14;16.67;;;6.30;;
8978;SDS011;4524;51.364;5.448;2023-04-24T23:05:42;12.03;;;5.73;;
8978;SDS011;4524;51.364;5.448;2023-04-24T23:08:10;12.17;;;5.57;;
8978;SDS011;4524;51.364;5.448;2023-04-24T23:10:37;14.47;;;6.07;;
8978;SDS011;4524;51.364;5.448;2023-04-24T23:13:05;11.03;;;6.20;;
8978;SDS011;4524;51.364;5.448;2023-04-24T23:15:33;15.47;;;5.80;;
8978;SDS011;4524;51.364;5.448;2023-04-24T23:18:01;13.60;;;6.00;;
8978;SDS011;4524;51.364;5.448;2023-04-24T23:20:31;16.80;;;6.17;;
8978;SDS011;4524;51.364;5.448;2023-04-24T23:22:59;18.53;;;6.27;;
8978;SDS011;4524;51.364;5.448;2023-04-24T23:25:27;15.47;;;6.30;;
8978;SDS011;4524;51.364;5.448;2023-04-24T23:27:55;11.23;;;5.60;;
8978;SDS011;4524;51.364;5.448;2023-04-24T23:30:23;17.43;;;6.00;;
8978;SDS011;4524;51.364;5.448;2023-04-24T23:32:51;17.07;;;5.70;;
8978;SDS011;4524;51.364;5.448;2023-04-24T23:35:19;12.50;;;5.57;;
8978;SDS011;4524;51.364;5.448;2023-04-24T23:37:48;11.30;;;6.27;;
8978;SDS011;4524;51.364;5.448;2023-04-24T23:40:16;13.50;;;5.77;;
8978;SDS011;4524;51.364;5.448;2023-04-24T23:42:44;16.20;;;6.00;;
8978;SDS011;4524;51.364;5.448;2023-04-24T23:45:25;13.47;;;5.53;;
8978;SDS011;4524;51.364;5.448;2023-04-24T23:47:53;11.33;;;5.73;;
8978;SDS011;4524;51.364;5.448;2023-04-24T23:50:21;11.40;;;5.83;;
8978;SDS011;4524;51.364;5.448;2023-04-24T23:52:51;15.60;;;5.80;;
8978;SDS011;4524;51.364;5.448;2023-04-24T23:55:19;14.23;;;6.10;;
8978;SDS011;4524;51.364;5.448;2023-04-24T23:57:47;14.90;;;6.30;;
